sensor_id;sensor_type;location;lat;lon;timestamp;temperature;humidity
18712;DHT22;9485;49.386;8.674;2022-07-10T00:04:48;20.20;56.50
18712;DHT22;9485;49.386;8.674;2022-07-10T00:10:10;20.20;56.70
18712;DHT22;9485;49.386;8.674;2022-07-10T00:15:31;20.10;56.90
18712;DHT22;9485;49.386;8.674;2022-07-10T00:20:52;20.00;57.00
18712;DHT22;9485;49.386;8.674;2022-07-10T00:26:14;19.90;57.00
18712;DHT22;9485;49.386;8.674;2022-07-10T00:31:35;19.80;57.50
18712;DHT22;9485;49.386;8.674;2022-07-10T00:36:55;19.70;57.40
18712;DHT22;9485;49.386;8.674;2022-07-10T00:42:17;19.60;57.50
18712;DHT22;9485;49.386;8.674;2022-07-10T00:47:38;19.60;57.90
18712;DHT22;9485;49.386;8.674;2022-07-10T00:52:59;19.60;57.90
18712;DHT22;9485;49.386;8.674;2022-07-10T00:58:23;19.50;58.00
18712;DHT22;9485;49.386;8.674;2022-07-10T01:03:43;19.40;58.20
18712;DHT22;9485;49.386;8.674;2022-07-10T01:09:05;19.30;58.20
18712;DHT22;9485;49.386;8.674;2022-07-10T01:14:28;19.20;58.50
18712;DHT22;9485;49.386;8.674;2022-07-10T01:19:49;19.10;59.40
18712;DHT22;9485;49.386;8.674;2022-07-10T01:25:11;19.10;60.00
18712;DHT22;9485;49.386;8.674;2022-07-10T01:30:32;19.10;60.10
18712;DHT22;9485;49.386;8.674;2022-07-10T01:35:52;19.10;59.80
18712;DHT22;9485;49.386;8.674;2022-07-10T01:41:14;19.10;60.00
18712;DHT22;9485;49.386;8.674;2022-07-10T01:46:35;19.20;60.10
18712;DHT22;9485;49.386;8.674;2022-07-10T01:52:03;19.20;59.90
18712;DHT22;9485;49.386;8.674;2022-07-10T01:57:25;19.20;60.00
18712;DHT22;9485;49.386;8.674;2022-07-10T02:02:46;19.20;61.30
18712;DHT22;9485;49.386;8.674;2022-07-10T02:08:26;19.20;60.90
18712;DHT22;9485;49.386;8.674;2022-07-10T02:13:48;19.20;60.40
18712;DHT22;9485;49.386;8.674;2022-07-10T02:19:10;19.20;60.80
18712;DHT22;9485;49.386;8.674;2022-07-10T02:24:30;19.10;60.50
18712;DHT22;9485;49.386;8.674;2022-07-10T02:29:52;19.10;60.80
18712;DHT22;9485;49.386;8.674;2022-07-10T02:35:12;19.00;61.70
18712;DHT22;9485;49.386;8.674;2022-07-10T02:40:33;19.00;60.70
18712;DHT22;9485;49.386;8.674;2022-07-10T02:45:55;19.00;60.70
18712;DHT22;9485;49.386;8.674;2022-07-10T02:51:16;18.90;60.80
18712;DHT22;9485;49.386;8.674;2022-07-10T02:56:36;18.90;61.40
18712;DHT22;9485;49.386;8.674;2022-07-10T03:01:58;18.90;61.10
18712;DHT22;9485;49.386;8.674;2022-07-10T03:07:19;18.90;61.70
18712;DHT22;9485;49.386;8.674;2022-07-10T03:12:40;18.80;61.30
18712;DHT22;9485;49.386;8.674;2022-07-10T03:18:02;18.80;60.80
18712;DHT22;9485;49.386;8.674;2022-07-10T03:23:22;18.80;61.20
18712;DHT22;9485;49.386;8.674;2022-07-10T03:28:43;18.80;61.10
18712;DHT22;9485;49.386;8.674;2022-07-10T03:34:05;18.80;61.20
18712;DHT22;9485;49.386;8.674;2022-07-10T03:39:26;18.80;61.40
18712;DHT22;9485;49.386;8.674;2022-07-10T03:44:46;18.80;61.00
18712;DHT22;9485;49.386;8.674;2022-07-10T03:50:09;18.90;61.00
18712;DHT22;9485;49.386;8.674;2022-07-10T03:55:29;18.90;61.00
18712;DHT22;9485;49.386;8.674;2022-07-10T04:00:50;18.90;60.60
18712;DHT22;9485;49.386;8.674;2022-07-10T04:06:11;18.90;60.90
18712;DHT22;9485;49.386;8.674;2022-07-10T04:11:32;18.90;61.20
18712;DHT22;9485;49.386;8.674;2022-07-10T04:16:53;18.90;61.30
18712;DHT22;9485;49.386;8.674;2022-07-10T04:22:15;18.90;61.40
18712;DHT22;9485;49.386;8.674;2022-07-10T04:27:36;18.90;61.50
18712;DHT22;9485;49.386;8.674;2022-07-10T04:32:56;18.90;60.90
18712;DHT22;9485;49.386;8.674;2022-07-10T04:38:18;19.00;61.00
18712;DHT22;9485;49.386;8.674;2022-07-10T04:43:40;19.10;60.80
18712;DHT22;9485;49.386;8.674;2022-07-10T04:49:01;19.10;60.50
18712;DHT22;9485;49.386;8.674;2022-07-10T04:54:23;19.20;60.40
18712;DHT22;9485;49.386;8.674;2022-07-10T04:59:44;19.20;60.40
18712;DHT22;9485;49.386;8.674;2022-07-10T05:05:05;19.30;60.00
18712;DHT22;9485;49.386;8.674;2022-07-10T05:10:28;19.20;59.90
18712;DHT22;9485;49.386;8.674;2022-07-10T05:15:48;19.20;59.90
18712;DHT22;9485;49.386;8.674;2022-07-10T05:21:10;19.30;59.90
18712;DHT22;9485;49.386;8.674;2022-07-10T05:26:33;19.30;59.70
18712;DHT22;9485;49.386;8.674;2022-07-10T05:31:55;19.30;59.80
18712;DHT22;9485;49.386;8.674;2022-07-10T05:37:15;19.30;59.50
18712;DHT22;9485;49.386;8.674;2022-07-10T05:42:38;19.30;59.20
18712;DHT22;9485;49.386;8.674;2022-07-10T05:47:59;19.40;59.00
18712;DHT22;9485;49.386;8.674;2022-07-10T05:53:19;19.40;58.80
18712;DHT22;9485;49.386;8.674;2022-07-10T05:58:41;19.40;58.60
18712;DHT22;9485;49.386;8.674;2022-07-10T06:04:02;19.30;58.20
18712;DHT22;9485;49.386;8.674;2022-07-10T06:09:22;19.30;58.00
18712;DHT22;9485;49.386;8.674;2022-07-10T06:14:44;19.30;58.00
18712;DHT22;9485;49.386;8.674;2022-07-10T06:20:06;19.30;58.20
18712;DHT22;9485;49.386;8.674;2022-07-10T06:25:27;19.20;58.20
18712;DHT22;9485;49.386;8.674;2022-07-10T06:30:50;19.30;58.20
18712;DHT22;9485;49.386;8.674;2022-07-10T06:36:11;19.30;58.40
18712;DHT22;9485;49.386;8.674;2022-07-10T06:41:32;19.50;58.30
18712;DHT22;9485;49.386;8.674;2022-07-10T06:46:55;19.60;58.20
18712;DHT22;9485;49.386;8.674;2022-07-10T06:52:34;19.80;58.10
18712;DHT22;9485;49.386;8.674;2022-07-10T06:57:56;19.90;57.90
18712;DHT22;9485;49.386;8.674;2022-07-10T07:03:18;20.10;57.50
18712;DHT22;9485;49.386;8.674;2022-07-10T07:08:39;20.10;57.40
18712;DHT22;9485;49.386;8.674;2022-07-10T07:13:59;20.40;57.40
18712;DHT22;9485;49.386;8.674;2022-07-10T07:19:21;20.60;56.90
18712;DHT22;9485;49.386;8.674;2022-07-10T07:24:51;21.00;56.40
18712;DHT22;9485;49.386;8.674;2022-07-10T07:30:13;21.20;55.50
18712;DHT22;9485;49.386;8.674;2022-07-10T07:35:36;21.40;55.20
18712;DHT22;9485;49.386;8.674;2022-07-10T07:40:57;21.90;55.60
18712;DHT22;9485;49.386;8.674;2022-07-10T07:46:17;22.70;54.80
18712;DHT22;9485;49.386;8.674;2022-07-10T07:51:39;23.70;53.60
18712;DHT22;9485;49.386;8.674;2022-07-10T07:57:00;24.70;51.90
18712;DHT22;9485;49.386;8.674;2022-07-10T08:02:20;25.60;50.50
18712;DHT22;9485;49.386;8.674;2022-07-10T08:07:44;26.40;49.20
18712;DHT22;9485;49.386;8.674;2022-07-10T08:13:06;26.90;47.00
18712;DHT22;9485;49.386;8.674;2022-07-10T08:18:27;27.30;47.60
18712;DHT22;9485;49.386;8.674;2022-07-10T08:23:49;27.70;46.50
18712;DHT22;9485;49.386;8.674;2022-07-10T08:29:10;28.40;44.10
18712;DHT22;9485;49.386;8.674;2022-07-10T08:34:30;28.80;43.70
18712;DHT22;9485;49.386;8.674;2022-07-10T08:39:53;28.70;42.30
18712;DHT22;9485;49.386;8.674;2022-07-10T08:45:14;28.20;42.40
18712;DHT22;9485;49.386;8.674;2022-07-10T08:50:38;28.20;44.40
18712;DHT22;9485;49.386;8.674;2022-07-10T08:56:06;28.70;44.00
18712;DHT22;9485;49.386;8.674;2022-07-10T09:01:27;29.30;41.70
18712;DHT22;9485;49.386;8.674;2022-07-10T09:06:48;29.40;40.70
18712;DHT22;9485;49.386;8.674;2022-07-10T09:12:10;29.30;41.30
18712;DHT22;9485;49.386;8.674;2022-07-10T09:17:37;28.90;38.70
18712;DHT22;9485;49.386;8.674;2022-07-10T09:23:17;28.40;38.50
18712;DHT22;9485;49.386;8.674;2022-07-10T09:28:40;27.70;38.30
18712;DHT22;9485;49.386;8.674;2022-07-10T09:34:00;27.30;40.00
18712;DHT22;9485;49.386;8.674;2022-07-10T09:39:21;27.30;40.90
18712;DHT22;9485;49.386;8.674;2022-07-10T09:44:43;27.50;40.70
18712;DHT22;9485;49.386;8.674;2022-07-10T09:50:19;27.80;40.60
18712;DHT22;9485;49.386;8.674;2022-07-10T09:55:42;28.10;38.40
18712;DHT22;9485;49.386;8.674;2022-07-10T10:01:06;28.40;40.00
18712;DHT22;9485;49.386;8.674;2022-07-10T10:06:30;28.70;39.80
18712;DHT22;9485;49.386;8.674;2022-07-10T10:11:56;28.90;39.10
18712;DHT22;9485;49.386;8.674;2022-07-10T10:17:22;28.80;39.50
18712;DHT22;9485;49.386;8.674;2022-07-10T10:22:48;28.70;37.90
18712;DHT22;9485;49.386;8.674;2022-07-10T10:28:11;28.40;39.10
18712;DHT22;9485;49.386;8.674;2022-07-10T10:33:45;28.20;39.00
18712;DHT22;9485;49.386;8.674;2022-07-10T10:39:09;28.20;38.60
18712;DHT22;9485;49.386;8.674;2022-07-10T10:44:32;28.50;40.30
18712;DHT22;9485;49.386;8.674;2022-07-10T10:49:56;29.00;39.70
18712;DHT22;9485;49.386;8.674;2022-07-10T10:55:18;29.40;37.30
18712;DHT22;9485;49.386;8.674;2022-07-10T11:00:40;29.30;36.60
18712;DHT22;9485;49.386;8.674;2022-07-10T11:06:05;29.00;37.30
18712;DHT22;9485;49.386;8.674;2022-07-10T11:11:39;28.80;37.40
18712;DHT22;9485;49.386;8.674;2022-07-10T11:17:00;28.90;37.80
18712;DHT22;9485;49.386;8.674;2022-07-10T11:22:46;29.20;38.20
18712;DHT22;9485;49.386;8.674;2022-07-10T11:28:10;29.70;35.60
18712;DHT22;9485;49.386;8.674;2022-07-10T11:33:39;30.00;36.30
18712;DHT22;9485;49.386;8.674;2022-07-10T11:39:06;30.10;35.10
18712;DHT22;9485;49.386;8.674;2022-07-10T11:44:27;30.20;35.70
18712;DHT22;9485;49.386;8.674;2022-07-10T11:49:48;30.20;36.50
18712;DHT22;9485;49.386;8.674;2022-07-10T11:55:18;30.30;36.00
18712;DHT22;9485;49.386;8.674;2022-07-10T12:00:40;30.40;35.50
18712;DHT22;9485;49.386;8.674;2022-07-10T12:06:02;30.60;36.90
18712;DHT22;9485;49.386;8.674;2022-07-10T12:11:25;30.70;36.90
18712;DHT22;9485;49.386;8.674;2022-07-10T12:16:48;30.90;35.80
18712;DHT22;9485;49.386;8.674;2022-07-10T12:22:10;31.20;36.10
18712;DHT22;9485;49.386;8.674;2022-07-10T12:27:41;31.20;35.90
18712;DHT22;9485;49.386;8.674;2022-07-10T12:33:07;31.20;34.20
18712;DHT22;9485;49.386;8.674;2022-07-10T12:38:29;31.30;35.40
18712;DHT22;9485;49.386;8.674;2022-07-10T12:43:53;31.50;36.50
18712;DHT22;9485;49.386;8.674;2022-07-10T12:49:13;31.70;35.30
18712;DHT22;9485;49.386;8.674;2022-07-10T12:54:35;31.70;34.50
18712;DHT22;9485;49.386;8.674;2022-07-10T13:00:03;31.40;35.20
18712;DHT22;9485;49.386;8.674;2022-07-10T13:05:30;31.20;34.70
18712;DHT22;9485;49.386;8.674;2022-07-10T13:10:53;31.10;35.40
18712;DHT22;9485;49.386;8.674;2022-07-10T13:16:16;31.20;34.70
18712;DHT22;9485;49.386;8.674;2022-07-10T13:21:38;31.20;35.00
18712;DHT22;9485;49.386;8.674;2022-07-10T13:26:58;31.00;34.40
18712;DHT22;9485;49.386;8.674;2022-07-10T13:32:20;30.70;34.90
18712;DHT22;9485;49.386;8.674;2022-07-10T13:37:41;30.50;34.60
18712;DHT22;9485;49.386;8.674;2022-07-10T13:43:03;30.20;34.10
18712;DHT22;9485;49.386;8.674;2022-07-10T13:48:27;29.90;34.10
18712;DHT22;9485;49.386;8.674;2022-07-10T13:53:50;29.60;34.60
18712;DHT22;9485;49.386;8.674;2022-07-10T13:59:11;29.30;35.20
18712;DHT22;9485;49.386;8.674;2022-07-10T14:04:33;29.00;35.10
18712;DHT22;9485;49.386;8.674;2022-07-10T14:09:54;28.70;35.30
18712;DHT22;9485;49.386;8.674;2022-07-10T14:15:15;28.50;35.50
18712;DHT22;9485;49.386;8.674;2022-07-10T14:20:38;28.20;35.80
18712;DHT22;9485;49.386;8.674;2022-07-10T14:26:16;28.00;35.50
18712;DHT22;9485;49.386;8.674;2022-07-10T14:31:36;27.70;36.10
18712;DHT22;9485;49.386;8.674;2022-07-10T14:37:00;27.60;36.40
18712;DHT22;9485;49.386;8.674;2022-07-10T14:42:21;27.60;36.70
18712;DHT22;9485;49.386;8.674;2022-07-10T14:47:41;27.50;36.90
18712;DHT22;9485;49.386;8.674;2022-07-10T14:53:03;27.40;37.00
18712;DHT22;9485;49.386;8.674;2022-07-10T14:58:25;27.40;36.60
18712;DHT22;9485;49.386;8.674;2022-07-10T15:03:45;27.30;36.60
18712;DHT22;9485;49.386;8.674;2022-07-10T15:09:08;27.20;36.90
18712;DHT22;9485;49.386;8.674;2022-07-10T15:14:28;27.20;37.00
18712;DHT22;9485;49.386;8.674;2022-07-10T15:19:49;27.00;37.00
18712;DHT22;9485;49.386;8.674;2022-07-10T15:25:11;26.90;37.10
18712;DHT22;9485;49.386;8.674;2022-07-10T15:30:31;26.80;37.20
18712;DHT22;9485;49.386;8.674;2022-07-10T15:35:52;26.70;37.30
18712;DHT22;9485;49.386;8.674;2022-07-10T15:41:14;26.60;37.60
18712;DHT22;9485;49.386;8.674;2022-07-10T15:46:35;26.50;37.40
18712;DHT22;9485;49.386;8.674;2022-07-10T15:51:56;26.50;37.50
18712;DHT22;9485;49.386;8.674;2022-07-10T15:57:19;26.30;37.30
18712;DHT22;9485;49.386;8.674;2022-07-10T16:02:40;26.10;37.70
18712;DHT22;9485;49.386;8.674;2022-07-10T16:08:01;26.00;38.20
18712;DHT22;9485;49.386;8.674;2022-07-10T16:13:22;26.00;38.20
18712;DHT22;9485;49.386;8.674;2022-07-10T16:18:43;25.90;38.40
18712;DHT22;9485;49.386;8.674;2022-07-10T16:24:05;25.90;38.50
18712;DHT22;9485;49.386;8.674;2022-07-10T16:29:27;25.90;38.40
18712;DHT22;9485;49.386;8.674;2022-07-10T16:34:48;25.80;38.40
18712;DHT22;9485;49.386;8.674;2022-07-10T16:40:10;25.70;38.50
18712;DHT22;9485;49.386;8.674;2022-07-10T16:45:34;25.70;38.80
18712;DHT22;9485;49.386;8.674;2022-07-10T16:50:54;25.70;38.90
18712;DHT22;9485;49.386;8.674;2022-07-10T16:56:16;25.60;39.00
18712;DHT22;9485;49.386;8.674;2022-07-10T17:01:38;25.40;39.20
18712;DHT22;9485;49.386;8.674;2022-07-10T17:06:58;25.40;39.40
18712;DHT22;9485;49.386;8.674;2022-07-10T17:12:19;25.30;39.60
18712;DHT22;9485;49.386;8.674;2022-07-10T17:17:41;25.30;39.80
18712;DHT22;9485;49.386;8.674;2022-07-10T17:23:02;25.20;40.00
18712;DHT22;9485;49.386;8.674;2022-07-10T17:28:23;25.10;40.30
18712;DHT22;9485;49.386;8.674;2022-07-10T17:33:45;25.10;40.40
18712;DHT22;9485;49.386;8.674;2022-07-10T17:39:06;25.00;40.60
18712;DHT22;9485;49.386;8.674;2022-07-10T17:44:29;24.90;40.70
18712;DHT22;9485;49.386;8.674;2022-07-10T17:49:51;24.80;40.80
18712;DHT22;9485;49.386;8.674;2022-07-10T17:55:12;24.70;41.00
18712;DHT22;9485;49.386;8.674;2022-07-10T18:00:33;24.70;41.00
18712;DHT22;9485;49.386;8.674;2022-07-10T18:05:55;24.60;41.20
18712;DHT22;9485;49.386;8.674;2022-07-10T18:11:15;24.50;41.40
18712;DHT22;9485;49.386;8.674;2022-07-10T18:16:37;24.40;41.60
18712;DHT22;9485;49.386;8.674;2022-07-10T18:21:59;24.30;41.70
18712;DHT22;9485;49.386;8.674;2022-07-10T18:27:19;24.20;41.90
18712;DHT22;9485;49.386;8.674;2022-07-10T18:32:40;24.20;42.10
18712;DHT22;9485;49.386;8.674;2022-07-10T18:38:20;24.10;42.20
18712;DHT22;9485;49.386;8.674;2022-07-10T18:43:41;24.10;42.40
18712;DHT22;9485;49.386;8.674;2022-07-10T18:49:01;24.00;42.60
18712;DHT22;9485;49.386;8.674;2022-07-10T18:54:23;23.90;43.20
18712;DHT22;9485;49.386;8.674;2022-07-10T18:59:44;23.90;42.80
18712;DHT22;9485;49.386;8.674;2022-07-10T19:05:05;23.80;42.90
18712;DHT22;9485;49.386;8.674;2022-07-10T19:10:28;23.70;43.00
18712;DHT22;9485;49.386;8.674;2022-07-10T19:15:49;23.60;43.30
18712;DHT22;9485;49.386;8.674;2022-07-10T19:21:10;23.60;43.50
18712;DHT22;9485;49.386;8.674;2022-07-10T19:26:32;23.60;43.60
18712;DHT22;9485;49.386;8.674;2022-07-10T19:31:53;23.50;43.70
18712;DHT22;9485;49.386;8.674;2022-07-10T19:37:14;23.40;43.90
18712;DHT22;9485;49.386;8.674;2022-07-10T19:42:36;23.40;44.20
18712;DHT22;9485;49.386;8.674;2022-07-10T19:47:56;23.30;44.60
18712;DHT22;9485;49.386;8.674;2022-07-10T19:53:17;23.20;45.30
18712;DHT22;9485;49.386;8.674;2022-07-10T19:58:39;23.10;45.10
18712;DHT22;9485;49.386;8.674;2022-07-10T20:03:59;23.00;45.10
18712;DHT22;9485;49.386;8.674;2022-07-10T20:09:20;22.90;45.40
18712;DHT22;9485;49.386;8.674;2022-07-10T20:14:43;22.90;45.70
18712;DHT22;9485;49.386;8.674;2022-07-10T20:20:05;22.80;45.80
18712;DHT22;9485;49.386;8.674;2022-07-10T20:25:26;22.70;45.90
18712;DHT22;9485;49.386;8.674;2022-07-10T20:30:48;22.70;46.10
18712;DHT22;9485;49.386;8.674;2022-07-10T20:36:09;22.60;46.30
18712;DHT22;9485;49.386;8.674;2022-07-10T20:41:47;22.50;46.70
18712;DHT22;9485;49.386;8.674;2022-07-10T20:47:10;22.50;47.00
18712;DHT22;9485;49.386;8.674;2022-07-10T20:52:30;22.40;47.20
18712;DHT22;9485;49.386;8.674;2022-07-10T20:57:51;22.30;47.20
18712;DHT22;9485;49.386;8.674;2022-07-10T21:03:13;22.20;47.50
18712;DHT22;9485;49.386;8.674;2022-07-10T21:08:34;22.20;47.40
18712;DHT22;9485;49.386;8.674;2022-07-10T21:13:55;22.10;47.40
18712;DHT22;9485;49.386;8.674;2022-07-10T21:19:16;22.10;47.60
18712;DHT22;9485;49.386;8.674;2022-07-10T21:24:37;22.10;47.80
18712;DHT22;9485;49.386;8.674;2022-07-10T21:29:58;22.00;48.00
18712;DHT22;9485;49.386;8.674;2022-07-10T21:35:20;22.00;48.00
18712;DHT22;9485;49.386;8.674;2022-07-10T21:40:41;22.00;48.20
18712;DHT22;9485;49.386;8.674;2022-07-10T21:46:02;22.00;48.20
18712;DHT22;9485;49.386;8.674;2022-07-10T21:51:25;21.90;48.30
18712;DHT22;9485;49.386;8.674;2022-07-10T21:56:46;21.90;48.80
18712;DHT22;9485;49.386;8.674;2022-07-10T22:02:07;21.80;48.70
18712;DHT22;9485;49.386;8.674;2022-07-10T22:07:30;21.80;48.80
18712;DHT22;9485;49.386;8.674;2022-07-10T22:12:51;21.80;49.00
18712;DHT22;9485;49.386;8.674;2022-07-10T22:18:12;21.80;49.10
18712;DHT22;9485;49.386;8.674;2022-07-10T22:23:34;21.80;49.20
18712;DHT22;9485;49.386;8.674;2022-07-10T22:28:55;21.70;49.30
18712;DHT22;9485;49.386;8.674;2022-07-10T22:34:16;21.70;49.40
18712;DHT22;9485;49.386;8.674;2022-07-10T22:39:38;21.70;49.70
18712;DHT22;9485;49.386;8.674;2022-07-10T22:44:59;21.70;49.70
18712;DHT22;9485;49.386;8.674;2022-07-10T22:50:19;21.70;49.60
18712;DHT22;9485;49.386;8.674;2022-07-10T22:55:41;21.60;49.80
18712;DHT22;9485;49.386;8.674;2022-07-10T23:01:03;21.60;50.10
18712;DHT22;9485;49.386;8.674;2022-07-10T23:06:24;21.60;50.10
18712;DHT22;9485;49.386;8.674;2022-07-10T23:11:47;21.60;50.20
18712;DHT22;9485;49.386;8.674;2022-07-10T23:17:07;21.60;50.60
18712;DHT22;9485;49.386;8.674;2022-07-10T23:22:28;21.50;50.40
18712;DHT22;9485;49.386;8.674;2022-07-10T23:27:50;21.50;50.50
18712;DHT22;9485;49.386;8.674;2022-07-10T23:33:10;21.50;50.80
18712;DHT22;9485;49.386;8.674;2022-07-10T23:38:31;21.50;50.80
18712;DHT22;9485;49.386;8.674;2022-07-10T23:43:53;21.40;50.90
18712;DHT22;9485;49.386;8.674;2022-07-10T23:49:13;21.40;51.10
18712;DHT22;9485;49.386;8.674;2022-07-10T23:54:52;21.40;51.10
